sensor_id;sensor_type;location;lat;lon;timestamp;P1;durP1;ratioP1;P2;durP2;ratioP2
32130;SDS011;18639;50.716;7.086;2023-05-07T00:02:20;1.48;;;1.23;;
32130;SDS011;18639;50.716;7.086;2023-05-07T00:04:45;2.10;;;1.20;;
32130;SDS011;18639;50.716;7.086;2023-05-07T00:07:11;2.08;;;1.00;;
32130;SDS011;18639;50.716;7.086;2023-05-07T00:09:36;1.40;;;1.10;;
32130;SDS011;18639;50.716;7.086;2023-05-07T00:12:01;1.88;;;1.00;;
32130;SDS011;18639;50.716;7.086;2023-05-07T00:14:27;1.65;;;1.02;;
32130;SDS011;18639;50.716;7.086;2023-05-07T00:16:52;2.00;;;1.38;;
32130;SDS011;18639;50.716;7.086;2023-05-07T00:19:17;2.47;;;1.42;;
32130;SDS011;18639;50.716;7.086;2023-05-07T00:21:43;3.72;;;1.25;;
32130;SDS011;18639;50.716;7.086;2023-05-07T00:24:08;3.55;;;1.35;;
32130;SDS011;18639;50.716;7.086;2023-05-07T00:26:33;1.65;;;0.77;;
32130;SDS011;18639;50.716;7.086;2023-05-07T00:28:59;2.65;;;1.10;;
32130;SDS011;18639;50.716;7.086;2023-05-07T00:31:24;2.13;;;1.30;;
32130;SDS011;18639;50.716;7.086;2023-05-07T00:33:49;1.20;;;0.90;;
32130;SDS011;18639;50.716;7.086;2023-05-07T00:36:15;1.63;;;1.20;;
32130;SDS011;18639;50.716;7.086;2023-05-07T00:38:40;3.58;;;1.02;;
32130;SDS011;18639;50.716;7.086;2023-05-07T00:41:05;1.55;;;1.10;;
32130;SDS011;18639;50.716;7.086;2023-05-07T00:43:31;2.25;;;1.15;;
32130;SDS011;18639;50.716;7.086;2023-05-07T00:45:57;2.85;;;1.40;;
32130;SDS011;18639;50.716;7.086;2023-05-07T00:48:22;1.55;;;1.00;;
32130;SDS011;18639;50.716;7.086;2023-05-07T00:50:49;2.33;;;1.35;;
32130;SDS011;18639;50.716;7.086;2023-05-07T00:53:14;1.67;;;1.17;;
32130;SDS011;18639;50.716;7.086;2023-05-07T00:55:40;1.75;;;1.20;;
32130;SDS011;18639;50.716;7.086;2023-05-07T00:58:05;3.47;;;1.50;;
32130;SDS011;18639;50.716;7.086;2023-05-07T01:00:31;1.33;;;0.82;;
32130;SDS011;18639;50.716;7.086;2023-05-07T01:02:57;1.73;;;1.00;;
32130;SDS011;18639;50.716;7.086;2023-05-07T01:05:23;2.20;;;1.35;;
32130;SDS011;18639;50.716;7.086;2023-05-07T01:07:49;2.20;;;1.20;;
32130;SDS011;18639;50.716;7.086;2023-05-07T01:10:17;2.28;;;1.38;;
32130;SDS011;18639;50.716;7.086;2023-05-07T01:12:42;2.10;;;1.17;;
32130;SDS011;18639;50.716;7.086;2023-05-07T01:15:10;2.58;;;1.58;;
32130;SDS011;18639;50.716;7.086;2023-05-07T01:17:36;1.50;;;1.08;;
32130;SDS011;18639;50.716;7.086;2023-05-07T01:20:03;2.10;;;1.27;;
32130;SDS011;18639;50.716;7.086;2023-05-07T01:22:30;1.73;;;1.10;;
32130;SDS011;18639;50.716;7.086;2023-05-07T01:24:57;2.00;;;1.27;;
32130;SDS011;18639;50.716;7.086;2023-05-07T01:27:24;1.83;;;1.27;;
32130;SDS011;18639;50.716;7.086;2023-05-07T01:29:49;1.92;;;1.40;;
32130;SDS011;18639;50.716;7.086;2023-05-07T01:32:15;2.10;;;1.42;;
32130;SDS011;18639;50.716;7.086;2023-05-07T01:34:43;2.47;;;1.55;;
32130;SDS011;18639;50.716;7.086;2023-05-07T01:37:11;2.25;;;1.13;;
32130;SDS011;18639;50.716;7.086;2023-05-07T01:39:37;2.83;;;1.48;;
32130;SDS011;18639;50.716;7.086;2023-05-07T01:42:04;2.30;;;1.30;;
32130;SDS011;18639;50.716;7.086;2023-05-07T01:44:29;2.38;;;1.30;;
32130;SDS011;18639;50.716;7.086;2023-05-07T01:46:55;2.55;;;1.40;;
32130;SDS011;18639;50.716;7.086;2023-05-07T01:49:21;2.58;;;1.50;;
32130;SDS011;18639;50.716;7.086;2023-05-07T01:51:47;2.83;;;1.10;;
32130;SDS011;18639;50.716;7.086;2023-05-07T01:54:13;3.72;;;1.60;;
32130;SDS011;18639;50.716;7.086;2023-05-07T01:56:38;2.78;;;1.63;;
32130;SDS011;18639;50.716;7.086;2023-05-07T01:59:03;2.80;;;1.60;;
32130;SDS011;18639;50.716;7.086;2023-05-07T02:01:28;2.25;;;1.42;;
32130;SDS011;18639;50.716;7.086;2023-05-07T02:03:54;2.33;;;1.20;;
32130;SDS011;18639;50.716;7.086;2023-05-07T02:06:20;1.85;;;1.20;;
32130;SDS011;18639;50.716;7.086;2023-05-07T02:08:46;1.60;;;1.20;;
32130;SDS011;18639;50.716;7.086;2023-05-07T02:11:11;2.20;;;1.10;;
32130;SDS011;18639;50.716;7.086;2023-05-07T02:13:37;2.80;;;1.40;;
32130;SDS011;18639;50.716;7.086;2023-05-07T02:16:02;2.40;;;1.20;;
32130;SDS011;18639;50.716;7.086;2023-05-07T02:18:28;3.30;;;1.60;;
32130;SDS011;18639;50.716;7.086;2023-05-07T02:20:53;2.53;;;1.25;;
32130;SDS011;18639;50.716;7.086;2023-05-07T02:23:19;3.20;;;1.50;;
32130;SDS011;18639;50.716;7.086;2023-05-07T02:25:44;1.95;;;1.40;;
32130;SDS011;18639;50.716;7.086;2023-05-07T02:28:10;2.10;;;1.40;;
32130;SDS011;18639;50.716;7.086;2023-05-07T02:30:36;2.90;;;1.60;;
32130;SDS011;18639;50.716;7.086;2023-05-07T02:33:02;2.47;;;1.40;;
32130;SDS011;18639;50.716;7.086;2023-05-07T02:35:27;2.53;;;1.20;;
32130;SDS011;18639;50.716;7.086;2023-05-07T02:37:52;2.83;;;1.58;;
32130;SDS011;18639;50.716;7.086;2023-05-07T02:40:17;2.75;;;1.42;;
32130;SDS011;18639;50.716;7.086;2023-05-07T02:42:43;2.10;;;1.35;;
32130;SDS011;18639;50.716;7.086;2023-05-07T02:45:08;3.88;;;1.52;;
32130;SDS011;18639;50.716;7.086;2023-05-07T02:47:34;2.13;;;0.93;;
32130;SDS011;18639;50.716;7.086;2023-05-07T02:49:59;2.35;;;1.30;;
32130;SDS011;18639;50.716;7.086;2023-05-07T02:52:25;1.65;;;1.40;;
32130;SDS011;18639;50.716;7.086;2023-05-07T02:54:50;1.75;;;1.10;;
32130;SDS011;18639;50.716;7.086;2023-05-07T02:57:15;1.98;;;1.38;;
32130;SDS011;18639;50.716;7.086;2023-05-07T02:59:41;3.55;;;1.40;;
32130;SDS011;18639;50.716;7.086;2023-05-07T03:02:07;2.75;;;1.30;;
32130;SDS011;18639;50.716;7.086;2023-05-07T03:04:32;2.38;;;1.23;;
32130;SDS011;18639;50.716;7.086;2023-05-07T03:06:57;1.80;;;1.00;;
32130;SDS011;18639;50.716;7.086;2023-05-07T03:09:22;2.90;;;1.27;;
32130;SDS011;18639;50.716;7.086;2023-05-07T03:11:48;3.35;;;1.40;;
32130;SDS011;18639;50.716;7.086;2023-05-07T03:14:13;2.75;;;1.42;;
32130;SDS011;18639;50.716;7.086;2023-05-07T03:16:39;1.95;;;1.30;;
32130;SDS011;18639;50.716;7.086;2023-05-07T03:19:05;1.60;;;1.17;;
32130;SDS011;18639;50.716;7.086;2023-05-07T03:21:30;3.38;;;1.35;;
32130;SDS011;18639;50.716;7.086;2023-05-07T03:23:58;3.50;;;1.30;;
32130;SDS011;18639;50.716;7.086;2023-05-07T03:26:24;2.85;;;1.30;;
32130;SDS011;18639;50.716;7.086;2023-05-07T03:28:50;1.83;;;1.20;;
32130;SDS011;18639;50.716;7.086;2023-05-07T03:31:15;1.80;;;1.08;;
32130;SDS011;18639;50.716;7.086;2023-05-07T03:33:50;1.85;;;1.08;;
32130;SDS011;18639;50.716;7.086;2023-05-07T03:36:17;3.58;;;1.52;;
32130;SDS011;18639;50.716;7.086;2023-05-07T03:38:42;2.53;;;1.40;;
32130;SDS011;18639;50.716;7.086;2023-05-07T03:41:08;1.25;;;0.98;;
32130;SDS011;18639;50.716;7.086;2023-05-07T03:43:33;2.92;;;1.20;;
32130;SDS011;18639;50.716;7.086;2023-05-07T03:45:58;2.20;;;1.15;;
32130;SDS011;18639;50.716;7.086;2023-05-07T03:48:23;1.95;;;1.17;;
32130;SDS011;18639;50.716;7.086;2023-05-07T03:50:49;2.45;;;1.55;;
32130;SDS011;18639;50.716;7.086;2023-05-07T03:53:15;2.45;;;1.30;;
32130;SDS011;18639;50.716;7.086;2023-05-07T03:55:40;4.30;;;1.55;;
32130;SDS011;18639;50.716;7.086;2023-05-07T03:58:05;2.20;;;1.38;;
32130;SDS011;18639;50.716;7.086;2023-05-07T04:00:30;2.78;;;1.42;;
32130;SDS011;18639;50.716;7.086;2023-05-07T04:02:58;2.92;;;1.52;;
32130;SDS011;18639;50.716;7.086;2023-05-07T04:05:24;4.78;;;1.70;;
32130;SDS011;18639;50.716;7.086;2023-05-07T04:07:49;2.33;;;1.50;;
32130;SDS011;18639;50.716;7.086;2023-05-07T04:10:15;2.90;;;1.75;;
32130;SDS011;18639;50.716;7.086;2023-05-07T04:12:40;2.53;;;1.60;;
32130;SDS011;18639;50.716;7.086;2023-05-07T04:15:05;2.50;;;1.25;;
32130;SDS011;18639;50.716;7.086;2023-05-07T04:17:31;2.33;;;1.30;;
32130;SDS011;18639;50.716;7.086;2023-05-07T04:19:56;3.00;;;1.50;;
32130;SDS011;18639;50.716;7.086;2023-05-07T04:22:22;3.20;;;1.33;;
32130;SDS011;18639;50.716;7.086;2023-05-07T04:24:47;4.05;;;1.42;;
32130;SDS011;18639;50.716;7.086;2023-05-07T04:27:12;2.67;;;1.20;;
32130;SDS011;18639;50.716;7.086;2023-05-07T04:29:37;2.60;;;1.48;;
32130;SDS011;18639;50.716;7.086;2023-05-07T04:32:07;2.33;;;1.38;;
32130;SDS011;18639;50.716;7.086;2023-05-07T04:34:33;3.92;;;1.52;;
32130;SDS011;18639;50.716;7.086;2023-05-07T04:36:59;2.45;;;1.50;;
32130;SDS011;18639;50.716;7.086;2023-05-07T04:39:24;2.70;;;1.40;;
32130;SDS011;18639;50.716;7.086;2023-05-07T04:41:50;2.63;;;1.30;;
32130;SDS011;18639;50.716;7.086;2023-05-07T04:44:15;2.75;;;1.50;;
32130;SDS011;18639;50.716;7.086;2023-05-07T04:46:41;4.97;;;2.10;;
32130;SDS011;18639;50.716;7.086;2023-05-07T04:49:07;2.08;;;1.20;;
32130;SDS011;18639;50.716;7.086;2023-05-07T04:51:32;3.42;;;1.80;;
32130;SDS011;18639;50.716;7.086;2023-05-07T04:53:57;7.57;;;2.20;;
32130;SDS011;18639;50.716;7.086;2023-05-07T04:56:23;5.50;;;2.45;;
32130;SDS011;18639;50.716;7.086;2023-05-07T04:58:48;3.78;;;1.88;;
32130;SDS011;18639;50.716;7.086;2023-05-07T05:01:13;3.47;;;1.70;;
32130;SDS011;18639;50.716;7.086;2023-05-07T05:03:39;3.08;;;1.90;;
32130;SDS011;18639;50.716;7.086;2023-05-07T05:06:04;4.05;;;2.00;;
32130;SDS011;18639;50.716;7.086;2023-05-07T05:08:30;3.13;;;1.65;;
32130;SDS011;18639;50.716;7.086;2023-05-07T05:10:56;3.50;;;1.88;;
32130;SDS011;18639;50.716;7.086;2023-05-07T05:13:21;5.68;;;1.73;;
32130;SDS011;18639;50.716;7.086;2023-05-07T05:15:46;3.50;;;2.03;;
32130;SDS011;18639;50.716;7.086;2023-05-07T05:18:12;4.80;;;2.10;;
32130;SDS011;18639;50.716;7.086;2023-05-07T05:20:37;4.50;;;2.30;;
32130;SDS011;18639;50.716;7.086;2023-05-07T05:23:02;3.75;;;2.08;;
32130;SDS011;18639;50.716;7.086;2023-05-07T05:25:28;5.28;;;2.92;;
32130;SDS011;18639;50.716;7.086;2023-05-07T05:27:53;5.72;;;2.70;;
32130;SDS011;18639;50.716;7.086;2023-05-07T05:30:18;4.05;;;2.30;;
32130;SDS011;18639;50.716;7.086;2023-05-07T05:32:44;7.97;;;2.50;;
32130;SDS011;18639;50.716;7.086;2023-05-07T05:35:09;5.80;;;2.60;;
32130;SDS011;18639;50.716;7.086;2023-05-07T05:37:34;4.10;;;2.50;;
32130;SDS011;18639;50.716;7.086;2023-05-07T05:40:00;5.18;;;2.40;;
32130;SDS011;18639;50.716;7.086;2023-05-07T05:42:25;3.42;;;1.98;;
32130;SDS011;18639;50.716;7.086;2023-05-07T05:44:50;4.75;;;2.25;;
32130;SDS011;18639;50.716;7.086;2023-05-07T05:47:16;3.63;;;1.90;;
32130;SDS011;18639;50.716;7.086;2023-05-07T05:49:41;4.22;;;2.42;;
32130;SDS011;18639;50.716;7.086;2023-05-07T05:52:08;4.57;;;2.20;;
32130;SDS011;18639;50.716;7.086;2023-05-07T05:54:33;4.05;;;2.38;;
32130;SDS011;18639;50.716;7.086;2023-05-07T05:56:59;5.60;;;2.55;;
32130;SDS011;18639;50.716;7.086;2023-05-07T05:59:24;4.20;;;2.40;;
32130;SDS011;18639;50.716;7.086;2023-05-07T06:01:49;3.85;;;2.00;;
32130;SDS011;18639;50.716;7.086;2023-05-07T06:04:15;4.10;;;2.08;;
32130;SDS011;18639;50.716;7.086;2023-05-07T06:06:41;4.82;;;2.17;;
32130;SDS011;18639;50.716;7.086;2023-05-07T06:09:06;3.67;;;1.92;;
32130;SDS011;18639;50.716;7.086;2023-05-07T06:11:31;4.40;;;2.00;;
32130;SDS011;18639;50.716;7.086;2023-05-07T06:13:57;4.43;;;2.00;;
32130;SDS011;18639;50.716;7.086;2023-05-07T06:16:22;4.70;;;1.80;;
32130;SDS011;18639;50.716;7.086;2023-05-07T06:18:49;3.67;;;1.77;;
32130;SDS011;18639;50.716;7.086;2023-05-07T06:21:14;3.25;;;1.80;;
32130;SDS011;18639;50.716;7.086;2023-05-07T06:23:40;2.50;;;1.88;;
32130;SDS011;18639;50.716;7.086;2023-05-07T06:26:06;4.15;;;1.92;;
32130;SDS011;18639;50.716;7.086;2023-05-07T06:28:31;3.40;;;1.63;;
32130;SDS011;18639;50.716;7.086;2023-05-07T06:33:39;4.50;;;1.90;;
32130;SDS011;18639;50.716;7.086;2023-05-07T06:36:05;3.10;;;1.67;;
32130;SDS011;18639;50.716;7.086;2023-05-07T06:38:31;3.65;;;1.45;;
32130;SDS011;18639;50.716;7.086;2023-05-07T06:40:56;2.72;;;1.63;;
32130;SDS011;18639;50.716;7.086;2023-05-07T06:43:22;2.63;;;1.92;;
32130;SDS011;18639;50.716;7.086;2023-05-07T06:45:47;4.43;;;1.90;;
32130;SDS011;18639;50.716;7.086;2023-05-07T06:48:12;3.30;;;2.10;;
32130;SDS011;18639;50.716;7.086;2023-05-07T06:50:38;2.63;;;1.58;;
32130;SDS011;18639;50.716;7.086;2023-05-07T06:53:03;2.50;;;1.40;;
32130;SDS011;18639;50.716;7.086;2023-05-07T06:55:28;3.45;;;1.80;;
32130;SDS011;18639;50.716;7.086;2023-05-07T06:57:53;3.45;;;1.65;;
32130;SDS011;18639;50.716;7.086;2023-05-07T07:00:19;4.32;;;2.08;;
32130;SDS011;18639;50.716;7.086;2023-05-07T07:02:45;2.30;;;1.45;;
32130;SDS011;18639;50.716;7.086;2023-05-07T07:05:10;2.95;;;1.63;;
32130;SDS011;18639;50.716;7.086;2023-05-07T07:07:35;2.50;;;1.48;;
32130;SDS011;18639;50.716;7.086;2023-05-07T07:10:01;2.22;;;1.48;;
32130;SDS011;18639;50.716;7.086;2023-05-07T07:12:26;2.58;;;1.42;;
32130;SDS011;18639;50.716;7.086;2023-05-07T07:14:53;4.80;;;1.98;;
32130;SDS011;18639;50.716;7.086;2023-05-07T07:17:19;3.08;;;1.75;;
32130;SDS011;18639;50.716;7.086;2023-05-07T07:19:44;1.85;;;1.17;;
32130;SDS011;18639;50.716;7.086;2023-05-07T07:22:09;2.42;;;1.33;;
32130;SDS011;18639;50.716;7.086;2023-05-07T07:24:35;2.85;;;1.60;;
32130;SDS011;18639;50.716;7.086;2023-05-07T07:27:00;2.60;;;1.30;;
32130;SDS011;18639;50.716;7.086;2023-05-07T07:29:25;2.47;;;1.20;;
32130;SDS011;18639;50.716;7.086;2023-05-07T07:31:51;2.67;;;1.23;;
32130;SDS011;18639;50.716;7.086;2023-05-07T07:34:17;2.90;;;1.50;;
32130;SDS011;18639;50.716;7.086;2023-05-07T07:36:42;2.08;;;1.27;;
32130;SDS011;18639;50.716;7.086;2023-05-07T07:39:07;6.00;;;1.27;;
32130;SDS011;18639;50.716;7.086;2023-05-07T07:41:33;1.63;;;1.30;;
32130;SDS011;18639;50.716;7.086;2023-05-07T07:43:58;2.15;;;1.10;;
32130;SDS011;18639;50.716;7.086;2023-05-07T07:46:23;2.08;;;1.10;;
32130;SDS011;18639;50.716;7.086;2023-05-07T07:48:49;1.65;;;1.10;;
32130;SDS011;18639;50.716;7.086;2023-05-07T07:51:14;1.67;;;1.02;;
32130;SDS011;18639;50.716;7.086;2023-05-07T07:53:39;3.28;;;1.15;;
32130;SDS011;18639;50.716;7.086;2023-05-07T07:56:06;2.22;;;1.10;;
32130;SDS011;18639;50.716;7.086;2023-05-07T07:58:31;2.10;;;1.20;;
32130;SDS011;18639;50.716;7.086;2023-05-07T08:00:56;1.58;;;1.20;;
32130;SDS011;18639;50.716;7.086;2023-05-07T08:03:22;1.33;;;1.10;;
32130;SDS011;18639;50.716;7.086;2023-05-07T08:05:47;1.08;;;0.88;;
32130;SDS011;18639;50.716;7.086;2023-05-07T08:08:14;1.30;;;1.00;;
32130;SDS011;18639;50.716;7.086;2023-05-07T08:10:40;1.05;;;0.82;;
32130;SDS011;18639;50.716;7.086;2023-05-07T08:13:05;1.45;;;0.90;;
32130;SDS011;18639;50.716;7.086;2023-05-07T08:15:31;1.67;;;0.88;;
32130;SDS011;18639;50.716;7.086;2023-05-07T08:17:57;1.27;;;0.90;;
32130;SDS011;18639;50.716;7.086;2023-05-07T08:20:24;0.88;;;0.80;;
32130;SDS011;18639;50.716;7.086;2023-05-07T08:22:51;1.17;;;0.90;;
32130;SDS011;18639;50.716;7.086;2023-05-07T08:25:16;2.05;;;1.05;;
32130;SDS011;18639;50.716;7.086;2023-05-07T08:27:41;1.33;;;0.95;;
32130;SDS011;18639;50.716;7.086;2023-05-07T08:30:07;1.08;;;0.70;;
32130;SDS011;18639;50.716;7.086;2023-05-07T08:32:33;1.90;;;0.85;;
32130;SDS011;18639;50.716;7.086;2023-05-07T08:34:59;1.38;;;0.90;;
32130;SDS011;18639;50.716;7.086;2023-05-07T08:37:25;1.35;;;0.82;;
32130;SDS011;18639;50.716;7.086;2023-05-07T08:39:50;1.63;;;0.90;;
32130;SDS011;18639;50.716;7.086;2023-05-07T08:42:16;1.17;;;0.82;;
32130;SDS011;18639;50.716;7.086;2023-05-07T08:44:41;1.60;;;0.90;;
32130;SDS011;18639;50.716;7.086;2023-05-07T08:47:11;1.25;;;0.95;;
32130;SDS011;18639;50.716;7.086;2023-05-07T08:49:37;0.95;;;0.80;;
32130;SDS011;18639;50.716;7.086;2023-05-07T08:52:02;4.03;;;0.90;;
32130;SDS011;18639;50.716;7.086;2023-05-07T08:54:28;2.38;;;0.93;;
32130;SDS011;18639;50.716;7.086;2023-05-07T08:56:54;1.35;;;0.75;;
32130;SDS011;18639;50.716;7.086;2023-05-07T08:59:19;1.33;;;1.00;;
32130;SDS011;18639;50.716;7.086;2023-05-07T09:01:45;1.30;;;0.85;;
32130;SDS011;18639;50.716;7.086;2023-05-07T09:04:10;0.90;;;0.73;;
32130;SDS011;18639;50.716;7.086;2023-05-07T09:06:37;1.10;;;0.80;;
32130;SDS011;18639;50.716;7.086;2023-05-07T09:09:06;1.30;;;0.98;;
32130;SDS011;18639;50.716;7.086;2023-05-07T09:11:32;1.30;;;0.82;;
32130;SDS011;18639;50.716;7.086;2023-05-07T09:13:57;1.02;;;0.90;;
32130;SDS011;18639;50.716;7.086;2023-05-07T09:16:24;1.65;;;0.73;;
32130;SDS011;18639;50.716;7.086;2023-05-07T09:18:51;0.90;;;0.80;;
32130;SDS011;18639;50.716;7.086;2023-05-07T09:21:20;1.75;;;0.93;;
32130;SDS011;18639;50.716;7.086;2023-05-07T09:23:48;1.83;;;0.80;;
32130;SDS011;18639;50.716;7.086;2023-05-07T09:26:15;3.03;;;1.23;;
32130;SDS011;18639;50.716;7.086;2023-05-07T09:28:41;1.27;;;0.90;;
32130;SDS011;18639;50.716;7.086;2023-05-07T09:31:07;1.75;;;0.80;;
32130;SDS011;18639;50.716;7.086;2023-05-07T09:33:33;1.17;;;0.98;;
32130;SDS011;18639;50.716;7.086;2023-05-07T09:36:01;1.55;;;1.05;;
32130;SDS011;18639;50.716;7.086;2023-05-07T09:38:28;1.25;;;0.90;;
32130;SDS011;18639;50.716;7.086;2023-05-07T09:41:03;1.60;;;0.88;;
32130;SDS011;18639;50.716;7.086;2023-05-07T09:43:36;1.35;;;0.90;;
32130;SDS011;18639;50.716;7.086;2023-05-07T09:46:03;1.20;;;1.00;;
32130;SDS011;18639;50.716;7.086;2023-05-07T09:48:31;0.82;;;0.80;;
32130;SDS011;18639;50.716;7.086;2023-05-07T09:51:01;1.05;;;0.82;;
32130;SDS011;18639;50.716;7.086;2023-05-07T09:53:29;1.00;;;0.85;;
32130;SDS011;18639;50.716;7.086;2023-05-07T09:55:55;1.70;;;1.00;;
32130;SDS011;18639;50.716;7.086;2023-05-07T09:58:22;2.13;;;0.90;;
32130;SDS011;18639;50.716;7.086;2023-05-07T10:00:48;1.25;;;0.90;;
32130;SDS011;18639;50.716;7.086;2023-05-07T10:03:15;1.52;;;0.90;;
32130;SDS011;18639;50.716;7.086;2023-05-07T10:05:41;0.93;;;0.63;;
32130;SDS011;18639;50.716;7.086;2023-05-07T10:08:08;3.15;;;0.93;;
32130;SDS011;18639;50.716;7.086;2023-05-07T10:10:34;1.40;;;1.00;;
32130;SDS011;18639;50.716;7.086;2023-05-07T10:13:01;1.05;;;0.90;;
32130;SDS011;18639;50.716;7.086;2023-05-07T10:15:27;2.35;;;0.85;;
32130;SDS011;18639;50.716;7.086;2023-05-07T10:17:54;1.23;;;0.82;;
32130;SDS011;18639;50.716;7.086;2023-05-07T10:20:20;1.30;;;0.90;;
32130;SDS011;18639;50.716;7.086;2023-05-07T10:22:47;1.15;;;0.80;;
32130;SDS011;18639;50.716;7.086;2023-05-07T10:25:17;1.25;;;0.93;;
32130;SDS011;18639;50.716;7.086;2023-05-07T10:27:46;1.80;;;1.20;;
32130;SDS011;18639;50.716;7.086;2023-05-07T10:32:51;2.78;;;0.90;;
32130;SDS011;18639;50.716;7.086;2023-05-07T10:35:20;1.20;;;0.90;;
32130;SDS011;18639;50.716;7.086;2023-05-07T10:37:49;1.10;;;0.88;;
32130;SDS011;18639;50.716;7.086;2023-05-07T10:40:15;0.68;;;0.60;;
32130;SDS011;18639;50.716;7.086;2023-05-07T10:45:21;1.38;;;0.77;;
32130;SDS011;18639;50.716;7.086;2023-05-07T10:48:20;0.93;;;0.70;;
32130;SDS011;18639;50.716;7.086;2023-05-07T10:50:43;1.00;;;0.88;;
32130;SDS011;18639;50.716;7.086;2023-05-07T10:53:20;1.85;;;0.95;;
32130;SDS011;18639;50.716;7.086;2023-05-07T10:55:46;1.08;;;0.88;;
32130;SDS011;18639;50.716;7.086;2023-05-07T10:58:25;1.13;;;0.90;;
32130;SDS011;18639;50.716;7.086;2023-05-07T11:03:25;0.93;;;0.80;;
32130;SDS011;18639;50.716;7.086;2023-05-07T11:11:16;0.55;;;0.55;;
32130;SDS011;18639;50.716;7.086;2023-05-07T11:13:48;0.98;;;0.80;;
32130;SDS011;18639;50.716;7.086;2023-05-07T11:16:17;1.38;;;0.90;;
32130;SDS011;18639;50.716;7.086;2023-05-07T11:18:48;1.48;;;0.90;;
32130;SDS011;18639;50.716;7.086;2023-05-07T11:24:13;1.15;;;0.75;;
32130;SDS011;18639;50.716;7.086;2023-05-07T11:26:49;1.55;;;0.95;;
32130;SDS011;18639;50.716;7.086;2023-05-07T11:29:17;1.25;;;0.90;;
32130;SDS011;18639;50.716;7.086;2023-05-07T11:31:44;1.27;;;0.93;;
32130;SDS011;18639;50.716;7.086;2023-05-07T11:34:13;1.35;;;0.98;;
32130;SDS011;18639;50.716;7.086;2023-05-07T11:36:43;1.27;;;1.00;;
32130;SDS011;18639;50.716;7.086;2023-05-07T11:39:23;2.47;;;0.90;;
32130;SDS011;18639;50.716;7.086;2023-05-07T11:41:59;2.15;;;1.02;;
32130;SDS011;18639;50.716;7.086;2023-05-07T11:44:25;1.27;;;0.80;;
32130;SDS011;18639;50.716;7.086;2023-05-07T11:46:50;1.10;;;0.80;;
32130;SDS011;18639;50.716;7.086;2023-05-07T11:49:16;0.98;;;0.85;;
32130;SDS011;18639;50.716;7.086;2023-05-07T11:51:42;1.13;;;0.90;;
32130;SDS011;18639;50.716;7.086;2023-05-07T11:54:08;1.20;;;0.90;;
32130;SDS011;18639;50.716;7.086;2023-05-07T11:56:36;2.50;;;0.90;;
32130;SDS011;18639;50.716;7.086;2023-05-07T11:59:02;1.08;;;0.80;;
32130;SDS011;18639;50.716;7.086;2023-05-07T12:01:27;0.80;;;0.77;;
32130;SDS011;18639;50.716;7.086;2023-05-07T12:03:52;2.67;;;0.70;;
32130;SDS011;18639;50.716;7.086;2023-05-07T12:06:18;1.55;;;0.75;;
32130;SDS011;18639;50.716;7.086;2023-05-07T12:08:44;1.63;;;1.00;;
32130;SDS011;18639;50.716;7.086;2023-05-07T12:11:15;1.40;;;1.08;;
32130;SDS011;18639;50.716;7.086;2023-05-07T12:13:46;4.03;;;0.90;;
32130;SDS011;18639;50.716;7.086;2023-05-07T12:16:11;1.77;;;0.95;;
32130;SDS011;18639;50.716;7.086;2023-05-07T12:18:37;1.00;;;0.70;;
32130;SDS011;18639;50.716;7.086;2023-05-07T12:21:03;1.48;;;0.90;;
32130;SDS011;18639;50.716;7.086;2023-05-07T12:23:30;1.48;;;0.70;;
32130;SDS011;18639;50.716;7.086;2023-05-07T12:25:55;0.95;;;0.80;;
32130;SDS011;18639;50.716;7.086;2023-05-07T12:28:20;0.90;;;0.70;;
32130;SDS011;18639;50.716;7.086;2023-05-07T12:30:46;0.70;;;0.60;;
32130;SDS011;18639;50.716;7.086;2023-05-07T12:33:19;1.50;;;0.80;;
32130;SDS011;18639;50.716;7.086;2023-05-07T12:35:49;1.23;;;0.80;;
32130;SDS011;18639;50.716;7.086;2023-05-07T12:38:15;1.35;;;0.85;;
32130;SDS011;18639;50.716;7.086;2023-05-07T12:40:43;2.65;;;0.80;;
32130;SDS011;18639;50.716;7.086;2023-05-07T12:45:42;1.55;;;0.70;;
32130;SDS011;18639;50.716;7.086;2023-05-07T12:48:09;1.38;;;0.68;;
32130;SDS011;18639;50.716;7.086;2023-05-07T12:50:35;0.60;;;0.52;;
32130;SDS011;18639;50.716;7.086;2023-05-07T12:53:00;0.82;;;0.70;;
32130;SDS011;18639;50.716;7.086;2023-05-07T12:55:31;1.02;;;0.70;;
32130;SDS011;18639;50.716;7.086;2023-05-07T12:57:56;1.10;;;0.80;;
32130;SDS011;18639;50.716;7.086;2023-05-07T13:00:37;2.03;;;0.82;;
32130;SDS011;18639;50.716;7.086;2023-05-07T13:05:31;3.10;;;1.00;;
32130;SDS011;18639;50.716;7.086;2023-05-07T13:07:57;1.48;;;0.68;;
32130;SDS011;18639;50.716;7.086;2023-05-07T13:10:23;0.70;;;0.60;;
32130;SDS011;18639;50.716;7.086;2023-05-07T13:12:49;1.10;;;0.80;;
32130;SDS011;18639;50.716;7.086;2023-05-07T13:15:15;0.98;;;0.77;;
32130;SDS011;18639;50.716;7.086;2023-05-07T13:17:40;1.38;;;0.95;;
32130;SDS011;18639;50.716;7.086;2023-05-07T13:20:08;0.90;;;0.80;;
32130;SDS011;18639;50.716;7.086;2023-05-07T13:22:34;1.40;;;0.85;;
32130;SDS011;18639;50.716;7.086;2023-05-07T13:25:00;1.27;;;0.95;;
32130;SDS011;18639;50.716;7.086;2023-05-07T13:27:25;1.38;;;1.00;;
32130;SDS011;18639;50.716;7.086;2023-05-07T13:29:51;2.15;;;1.30;;
32130;SDS011;18639;50.716;7.086;2023-05-07T13:32:16;1.48;;;0.90;;
32130;SDS011;18639;50.716;7.086;2023-05-07T13:34:41;1.33;;;0.85;;
32130;SDS011;18639;50.716;7.086;2023-05-07T13:37:06;0.93;;;0.80;;
32130;SDS011;18639;50.716;7.086;2023-05-07T13:39:32;1.23;;;0.90;;
32130;SDS011;18639;50.716;7.086;2023-05-07T13:41:58;1.02;;;0.90;;
32130;SDS011;18639;50.716;7.086;2023-05-07T13:44:23;1.90;;;0.98;;
32130;SDS011;18639;50.716;7.086;2023-05-07T13:46:48;0.93;;;0.82;;
32130;SDS011;18639;50.716;7.086;2023-05-07T13:49:14;1.98;;;1.00;;
32130;SDS011;18639;50.716;7.086;2023-05-07T13:51:39;1.35;;;1.08;;
32130;SDS011;18639;50.716;7.086;2023-05-07T13:54:04;1.42;;;0.80;;
32130;SDS011;18639;50.716;7.086;2023-05-07T13:56:30;1.00;;;0.88;;
32130;SDS011;18639;50.716;7.086;2023-05-07T13:58:57;1.02;;;0.90;;
32130;SDS011;18639;50.716;7.086;2023-05-07T14:01:25;2.13;;;1.48;;
32130;SDS011;18639;50.716;7.086;2023-05-07T14:03:50;1.83;;;1.08;;
32130;SDS011;18639;50.716;7.086;2023-05-07T14:06:15;1.15;;;0.88;;
32130;SDS011;18639;50.716;7.086;2023-05-07T14:08:41;1.55;;;1.02;;
32130;SDS011;18639;50.716;7.086;2023-05-07T14:11:06;1.58;;;1.15;;
32130;SDS011;18639;50.716;7.086;2023-05-07T14:13:31;2.17;;;1.17;;
32130;SDS011;18639;50.716;7.086;2023-05-07T14:15:59;1.30;;;0.98;;
32130;SDS011;18639;50.716;7.086;2023-05-07T14:18:24;1.25;;;0.90;;
32130;SDS011;18639;50.716;7.086;2023-05-07T14:20:50;1.60;;;1.10;;
32130;SDS011;18639;50.716;7.086;2023-05-07T14:23:15;1.92;;;1.38;;
32130;SDS011;18639;50.716;7.086;2023-05-07T14:25:42;1.33;;;1.02;;
32130;SDS011;18639;50.716;7.086;2023-05-07T14:28:08;0.93;;;0.70;;
32130;SDS011;18639;50.716;7.086;2023-05-07T14:30:33;1.55;;;0.85;;
32130;SDS011;18639;50.716;7.086;2023-05-07T14:32:59;1.15;;;1.00;;
32130;SDS011;18639;50.716;7.086;2023-05-07T14:35:25;0.80;;;0.70;;
32130;SDS011;18639;50.716;7.086;2023-05-07T14:37:50;1.35;;;0.90;;
32130;SDS011;18639;50.716;7.086;2023-05-07T14:40:15;0.90;;;0.77;;
32130;SDS011;18639;50.716;7.086;2023-05-07T14:42:41;0.80;;;0.60;;
32130;SDS011;18639;50.716;7.086;2023-05-07T14:45:06;0.80;;;0.70;;
32130;SDS011;18639;50.716;7.086;2023-05-07T14:47:32;0.60;;;0.60;;
32130;SDS011;18639;50.716;7.086;2023-05-07T14:49:57;1.17;;;0.70;;
32130;SDS011;18639;50.716;7.086;2023-05-07T14:52:26;1.42;;;0.70;;
32130;SDS011;18639;50.716;7.086;2023-05-07T14:54:52;0.93;;;0.82;;
32130;SDS011;18639;50.716;7.086;2023-05-07T14:57:17;1.65;;;0.63;;
32130;SDS011;18639;50.716;7.086;2023-05-07T14:59:43;0.88;;;0.68;;
32130;SDS011;18639;50.716;7.086;2023-05-07T15:02:09;1.17;;;0.80;;
32130;SDS011;18639;50.716;7.086;2023-05-07T15:04:39;1.50;;;0.90;;
32130;SDS011;18639;50.716;7.086;2023-05-07T15:07:10;0.80;;;0.77;;